createdAt,value
2022-10-08T00:01:31.485Z,101248.25
2022-10-08T00:03:59.500Z,101247.47
2022-10-08T00:06:33.693Z,101245.28
2022-10-08T00:09:07.418Z,101242.50
2022-10-08T00:11:39.844Z,101248.19
2022-10-08T00:14:09.831Z,101243.03
2022-10-08T00:16:40.196Z,101238.34
2022-10-08T00:19:16.531Z,101238.41
2022-10-08T00:21:45.876Z,101233.84
2022-10-08T00:24:20.133Z,101227.78
2022-10-08T00:26:48.032Z,101223.09
2022-10-08T00:29:19.308Z,101231.81
2022-10-08T00:31:49.319Z,101223.66
2022-10-08T00:34:20.235Z,101223.41
2022-10-08T00:36:53.188Z,101227.34
2022-10-08T00:39:23.332Z,101233.59
2022-10-08T00:41:53.710Z,101219.50
2022-10-08T00:44:54.922Z,101228.25
2022-10-08T00:47:33.427Z,101223.19
2022-10-08T00:50:08.919Z,101213.97
2022-10-08T00:52:43.647Z,101217.63
2022-10-08T00:55:14.891Z,101200.91
2022-10-08T00:57:48.163Z,101202.63
2022-10-08T01:00:20.321Z,101210.41
2022-10-08T01:02:49.062Z,101205.78
2022-10-08T01:05:23.848Z,101192.00
2022-10-08T01:08:03.881Z,101202.41
2022-10-08T01:10:59.456Z,101209.03
2022-10-08T01:14:12.656Z,101197.03
2022-10-08T01:17:10.685Z,101192.16
2022-10-08T01:20:01.529Z,101188.50
2022-10-08T01:22:53.918Z,101190.78
2022-10-08T01:25:39.907Z,101185.06
2022-10-08T01:28:07.727Z,101197.13
2022-10-08T01:30:39.952Z,101188.31
2022-10-08T01:33:17.976Z,101176.31
2022-10-08T01:35:54.249Z,101169.09
2022-10-08T01:38:25.320Z,101167.00
2022-10-08T01:41:00.555Z,101165.22
2022-10-08T01:43:35.652Z,101170.38
2022-10-08T01:46:12.358Z,101161.28
2022-10-08T01:48:45.418Z,101166.66
2022-10-08T01:51:19.928Z,101155.50
2022-10-08T01:53:56.182Z,101168.03
2022-10-08T01:56:28.325Z,101155.09
2022-10-08T01:59:07.278Z,101163.16
2022-10-08T02:01:49.996Z,101163.19
2022-10-08T02:04:35.319Z,101142.91
2022-10-08T02:07:11.892Z,101148.94
2022-10-08T02:09:48.516Z,101146.22
2022-10-08T02:12:16.639Z,101140.25
2022-10-08T02:14:49.105Z,101140.38
2022-10-08T02:17:50.567Z,101144.88
2022-10-08T02:20:37.840Z,101129.72
2022-10-08T02:24:09.879Z,101141.91
2022-10-08T02:26:46.767Z,101137.03
2022-10-08T02:29:29.149Z,101137.16
2022-10-08T02:32:02.820Z,101127.84
2022-10-08T02:34:35.303Z,101125.09
2022-10-08T02:37:43.106Z,101125.81
2022-10-08T02:40:15.304Z,101139.16
2022-10-08T02:42:52.561Z,101134.94
2022-10-08T02:45:33.526Z,101117.47
2022-10-08T02:48:18.585Z,101123.75
2022-10-08T02:50:51.576Z,101128.72
2022-10-08T02:53:21.079Z,101124.72
2022-10-08T02:56:04.980Z,101112.03
2022-10-08T02:58:33.384Z,101120.34
2022-10-08T03:01:10.172Z,101122.41
2022-10-08T03:03:44.772Z,101126.75
2022-10-08T03:06:16.236Z,101125.84
2022-10-08T03:08:49.398Z,101123.69
2022-10-08T03:11:19.561Z,101130.78
2022-10-08T03:13:57.614Z,101122.16
2022-10-08T03:16:32.102Z,101130.16
2022-10-08T03:19:03.511Z,101127.66
2022-10-08T03:21:33.017Z,101130.97
2022-10-08T03:24:27.283Z,101138.66
2022-10-08T03:26:55.287Z,101126.13
2022-10-08T03:29:24.278Z,101139.88
2022-10-08T03:31:52.080Z,101135.44
2022-10-08T03:34:24.545Z,101125.69
2022-10-08T03:36:55.339Z,101132.81
2022-10-08T03:39:23.152Z,101145.69
2022-10-08T03:41:51.126Z,101146.66
2022-10-08T03:44:19.051Z,101129.75
2022-10-08T03:46:46.750Z,101123.03
2022-10-08T03:49:14.820Z,101136.84
2022-10-08T03:51:44.806Z,101120.47
2022-10-08T03:54:12.614Z,101122.28
2022-10-08T03:56:43.999Z,101131.13
2022-10-08T03:59:12.026Z,101132.56
2022-10-08T04:01:39.903Z,101141.91
2022-10-08T04:04:08.945Z,101145.47
2022-10-08T04:06:36.840Z,101136.00
2022-10-08T04:09:04.708Z,101147.97
2022-10-08T04:11:32.546Z,101146.25
2022-10-08T04:14:01.506Z,101137.50
2022-10-08T04:16:29.492Z,101141.34
2022-10-08T04:19:01.874Z,101137.81
2022-10-08T04:21:30.800Z,101135.03
2022-10-08T04:23:59.634Z,101144.97
2022-10-08T04:26:27.547Z,101141.88
2022-10-08T04:28:55.601Z,101146.28
2022-10-08T04:31:24.189Z,101145.00
2022-10-08T04:33:52.442Z,101144.31
2022-10-08T04:36:23.212Z,101147.94
2022-10-08T04:38:54.371Z,101137.34
2022-10-08T04:41:24.836Z,101138.19
2022-10-08T04:43:54.202Z,101132.72
2022-10-08T04:46:26.079Z,101134.41
2022-10-08T04:49:21.695Z,101152.94
2022-10-08T04:52:12.613Z,101154.97
2022-10-08T04:54:47.710Z,101151.28
2022-10-08T04:57:19.603Z,101147.94
2022-10-08T05:00:18.327Z,101146.53
2022-10-08T05:02:52.246Z,101140.56
2022-10-08T05:05:28.568Z,101129.03
2022-10-08T05:08:27.734Z,101145.88
2022-10-08T05:13:41.877Z,101138.56
2022-10-08T05:16:11.970Z,101140.50
2022-10-08T05:18:41.288Z,101141.09
2022-10-08T05:21:13.625Z,101146.91
2022-10-08T05:23:42.963Z,101146.19
2022-10-08T05:26:18.751Z,101159.81
2022-10-08T05:28:48.096Z,101155.53
2022-10-08T05:31:16.553Z,101153.31
2022-10-08T05:33:44.646Z,101150.16
2022-10-08T05:36:32.832Z,101153.41
2022-10-08T05:39:01.988Z,101155.97
2022-10-08T05:41:36.924Z,101150.78
2022-10-08T05:44:05.949Z,101157.44
2022-10-08T05:46:36.193Z,101162.44
2022-10-08T05:49:06.129Z,101167.34
2022-10-08T05:51:34.703Z,101163.97
2022-10-08T05:54:02.258Z,101155.81
2022-10-08T05:56:31.647Z,101157.00
2022-10-08T05:58:59.422Z,101168.63
2022-10-08T06:01:29.531Z,101167.72
2022-10-08T06:04:08.156Z,101179.50
2022-10-08T06:06:37.994Z,101172.81
2022-10-08T06:09:06.269Z,101169.59
2022-10-08T06:11:36.094Z,101180.09
2022-10-08T06:14:06.194Z,101183.84
2022-10-08T06:16:35.138Z,101176.91
2022-10-08T06:19:03.893Z,101180.19
2022-10-08T06:21:32.077Z,101180.69
2022-10-08T06:24:11.788Z,101190.16
2022-10-08T06:26:41.812Z,101198.13
2022-10-08T06:29:17.395Z,101194.53
2022-10-08T06:31:45.101Z,101195.84
2022-10-08T06:34:12.813Z,101196.63
2022-10-08T06:36:40.720Z,101192.09
2022-10-08T06:39:11.715Z,101191.97
2022-10-08T06:41:39.320Z,101198.03
2022-10-08T06:44:10.217Z,101205.22
2022-10-08T06:46:37.842Z,101203.19
2022-10-08T06:49:06.411Z,101192.09
2022-10-08T06:51:34.513Z,101196.25
2022-10-08T06:54:07.486Z,101199.44
2022-10-08T06:56:37.956Z,101198.53
2022-10-08T06:59:06.348Z,101203.09
2022-10-08T07:01:35.531Z,101195.78
2022-10-08T07:04:05.236Z,101197.28
2022-10-08T07:06:33.213Z,101210.19
2022-10-08T07:09:02.199Z,101211.81
2022-10-08T07:11:32.162Z,101211.94
2022-10-08T07:14:00.551Z,101222.50
2022-10-08T07:16:28.785Z,101208.41
2022-10-08T07:18:58.761Z,101205.13
2022-10-08T07:21:27.874Z,101212.41
2022-10-08T07:23:55.453Z,101202.94
2022-10-08T07:26:25.931Z,101228.34
2022-10-08T07:28:59.293Z,101212.91
2022-10-08T07:31:30.278Z,101219.91
2022-10-08T07:33:59.257Z,101223.63
2022-10-08T07:36:38.940Z,101224.38
2022-10-08T07:39:11.926Z,101223.03
2022-10-08T07:41:40.086Z,101236.13
2022-10-08T07:44:08.563Z,101234.28
2022-10-08T07:46:38.098Z,101221.34
2022-10-08T07:49:05.837Z,101232.50
2022-10-08T07:51:34.420Z,101219.84
2022-10-08T07:54:27.187Z,101224.59
2022-10-08T08:00:25.231Z,101241.78
2022-10-08T08:02:58.550Z,101245.25
2022-10-08T08:05:38.501Z,101243.72
2022-10-08T08:08:59.345Z,101252.81
2022-10-08T08:15:06.662Z,101256.19
2022-10-08T08:18:21.348Z,101252.13
2022-10-08T08:28:18.760Z,101250.97
2022-10-08T08:30:46.449Z,101241.38
2022-10-08T08:33:32.331Z,101250.47
2022-10-08T08:35:59.709Z,101250.88
2022-10-08T08:38:26.999Z,101260.50
2022-10-08T08:40:57.384Z,101254.69
2022-10-08T08:43:25.303Z,101247.94
2022-10-08T08:45:52.799Z,101244.03
2022-10-08T08:48:26.722Z,101250.75
2022-10-08T08:50:58.768Z,101244.75
2022-10-08T08:53:27.611Z,101237.59
2022-10-08T08:55:58.722Z,101252.06
2022-10-08T08:58:41.477Z,101249.44
2022-10-08T09:01:08.891Z,101240.47
2022-10-08T09:03:43.395Z,101243.72
2022-10-08T09:06:14.645Z,101254.13
2022-10-08T09:08:53.557Z,101253.59
2022-10-08T09:11:22.429Z,101253.59
2022-10-08T09:14:05.922Z,101258.31
2022-10-08T09:16:35.614Z,101251.97
2022-10-08T09:19:03.013Z,101258.66
2022-10-08T09:21:34.712Z,101270.94
2022-10-08T09:24:02.131Z,101271.22
2022-10-08T09:26:36.263Z,101268.03
2022-10-08T09:29:05.053Z,101267.56
2022-10-08T09:31:38.188Z,101264.72
2022-10-08T09:34:13.130Z,101272.81
2022-10-08T09:36:43.481Z,101260.56
2022-10-08T09:39:20.983Z,101262.09
2022-10-08T09:42:04.613Z,101256.66
2022-10-08T09:45:03.728Z,101249.88
2022-10-08T09:47:31.400Z,101248.41
2022-10-08T09:50:05.815Z,101252.78
2022-10-08T09:52:34.819Z,101249.81
2022-10-08T09:55:08.223Z,101233.34
2022-10-08T09:57:44.857Z,101232.88
2022-10-08T10:00:24.482Z,101241.47
2022-10-08T10:02:56.306Z,101239.22
2022-10-08T10:05:28.737Z,101236.16
2022-10-08T10:07:56.059Z,101236.59
2022-10-08T10:10:35.810Z,101230.31
2022-10-08T10:13:14.069Z,101232.03
2022-10-08T10:15:46.917Z,101234.13
2022-10-08T10:18:28.350Z,101231.91
2022-10-08T10:21:11.543Z,101226.72
2022-10-08T10:23:46.346Z,101224.06
2022-10-08T10:26:21.868Z,101220.81
2022-10-08T10:29:02.984Z,101212.34
2022-10-08T10:31:52.613Z,101218.00
2022-10-08T10:34:27.444Z,101214.00
2022-10-08T10:36:59.059Z,101206.28
2022-10-08T10:39:42.079Z,101212.22
2022-10-08T10:42:19.121Z,101206.16
2022-10-08T10:44:53.705Z,101205.94
2022-10-08T10:47:27.093Z,101204.50
2022-10-08T10:49:58.409Z,101196.50
2022-10-08T10:52:43.751Z,101190.22
2022-10-08T10:55:29.398Z,101196.53
2022-10-08T10:58:15.180Z,101187.91
2022-10-08T11:01:03.722Z,101189.63
2022-10-08T11:03:53.307Z,101176.63
2022-10-08T11:06:39.193Z,101175.88
2022-10-08T11:09:16.095Z,101168.34
2022-10-08T11:11:58.188Z,101172.03
2022-10-08T11:15:12.782Z,101176.53
2022-10-08T11:17:45.693Z,101170.97
2022-10-08T11:20:18.720Z,101162.22
2022-10-08T11:22:57.915Z,101166.44
2022-10-08T11:26:16.414Z,101165.66
2022-10-08T11:29:09.619Z,101158.44
2022-10-08T11:31:51.441Z,101158.38
2022-10-08T11:34:37.347Z,101159.63
2022-10-08T11:37:16.263Z,101151.84
2022-10-08T11:39:49.891Z,101152.84
2022-10-08T11:42:48.167Z,101147.44
2022-10-08T11:45:25.811Z,101143.28
2022-10-08T11:47:58.412Z,101141.25
2022-10-08T11:50:36.172Z,101134.09
2022-10-08T11:53:15.498Z,101123.66
2022-10-08T11:55:53.439Z,101119.69
2022-10-08T11:58:30.654Z,101120.59
2022-10-08T12:01:09.961Z,101114.72
2022-10-08T12:03:40.810Z,101106.13
2022-10-08T12:06:28.738Z,101106.38
2022-10-08T12:08:57.342Z,101104.00
2022-10-08T12:11:37.462Z,101095.53
2022-10-08T12:14:17.120Z,101097.19
2022-10-08T12:16:47.422Z,101087.88
2022-10-08T12:19:35.813Z,101091.13
2022-10-08T12:22:15.321Z,101083.63
2022-10-08T12:24:50.239Z,101081.50
2022-10-08T12:27:18.033Z,101073.78
2022-10-08T12:30:13.903Z,101076.66
2022-10-08T12:32:44.313Z,101069.88
2022-10-08T12:35:41.623Z,101071.78
2022-10-08T12:38:31.194Z,101064.78
2022-10-08T12:41:23.398Z,101070.19
2022-10-08T12:44:19.649Z,101070.69
2022-10-08T12:47:16.517Z,101061.94
2022-10-08T12:49:52.282Z,101064.56
2022-10-08T12:52:21.100Z,101061.63
2022-10-08T12:55:09.874Z,101057.00
2022-10-08T12:57:40.612Z,101052.91
2022-10-08T13:00:20.930Z,101051.44
2022-10-08T13:03:06.157Z,101048.25
2022-10-08T13:05:37.607Z,101041.31
2022-10-08T13:08:19.100Z,101047.91
2022-10-08T13:10:47.077Z,101052.84
2022-10-08T13:13:38.228Z,101052.09
2022-10-08T13:16:08.111Z,101048.72
2022-10-08T13:18:37.122Z,101045.28
2022-10-08T13:21:10.319Z,101039.94
2022-10-08T13:23:40.390Z,101040.19
2022-10-08T13:26:45.015Z,101032.81
2022-10-08T13:29:18.395Z,101030.06
2022-10-08T13:32:11.974Z,101031.19
2022-10-08T13:35:00.758Z,101031.59
2022-10-08T13:37:45.324Z,101025.13
2022-10-08T13:40:13.202Z,101022.28
2022-10-08T13:42:44.701Z,101022.09
2022-10-08T13:45:17.289Z,101016.69
2022-10-08T13:47:48.399Z,101022.59
2022-10-08T13:50:21.374Z,101010.09
2022-10-08T13:52:54.782Z,101012.59
2022-10-08T13:55:31.436Z,101016.16
2022-10-08T13:58:02.272Z,101024.25
2022-10-08T14:00:33.572Z,101023.53
2022-10-08T14:03:01.782Z,101015.94
2022-10-08T14:05:31.810Z,101010.69
2022-10-08T14:08:05.654Z,101004.75
2022-10-08T14:10:33.428Z,101020.94
2022-10-08T14:13:00.923Z,101011.41
2022-10-08T14:15:28.484Z,101011.63
2022-10-08T14:17:56.014Z,101011.06
2022-10-08T14:20:23.671Z,101003.41
2022-10-08T14:22:51.355Z,101015.38
2022-10-08T14:25:31.221Z,101010.66
2022-10-08T14:28:00.967Z,101012.47
2022-10-08T14:30:28.762Z,101006.59
2022-10-08T14:32:56.526Z,101010.63
2022-10-08T14:35:24.135Z,101009.56
2022-10-08T14:37:51.690Z,101007.16
2022-10-08T14:40:22.521Z,101005.94
2022-10-08T14:42:50.712Z,101001.78
2022-10-08T14:45:18.602Z,101009.53
2022-10-08T14:47:46.359Z,101004.09
2022-10-08T14:50:14.091Z,101004.84
2022-10-08T14:52:44.465Z,100997.53
2022-10-08T14:55:14.235Z,101004.94
2022-10-08T14:57:41.748Z,100989.88
2022-10-08T15:00:13.930Z,100990.81
2022-10-08T15:02:42.903Z,100991.78
2022-10-08T15:05:10.375Z,100990.69
2022-10-08T15:07:37.901Z,100989.59
2022-10-08T15:10:05.721Z,101003.19
2022-10-08T15:12:33.145Z,101000.22
2022-10-08T15:15:00.563Z,100998.81
2022-10-08T15:17:27.960Z,100996.25
2022-10-08T15:19:56.489Z,100995.69
2022-10-08T15:22:30.876Z,101005.78
2022-10-08T15:24:58.458Z,101005.91
2022-10-08T15:27:31.767Z,101003.63
2022-10-08T15:29:59.120Z,101006.75
2022-10-08T15:32:30.376Z,101018.13
2022-10-08T15:34:58.292Z,101014.66
2022-10-08T15:37:25.694Z,101012.06
2022-10-08T15:39:53.026Z,101009.88
2022-10-08T15:42:20.347Z,101017.59
2022-10-08T15:44:47.886Z,101016.25
2022-10-08T15:47:16.528Z,101012.78
2022-10-08T15:49:45.903Z,101017.88
2022-10-08T15:52:19.550Z,101013.19
2022-10-08T15:54:47.533Z,101018.66
2022-10-08T15:57:19.747Z,101015.13
2022-10-08T15:59:47.207Z,101019.44
2022-10-08T16:02:17.354Z,101015.97
2022-10-08T16:04:47.272Z,101022.69
2022-10-08T16:07:15.121Z,101009.81
2022-10-08T16:09:42.625Z,101012.84
2022-10-08T16:12:10.314Z,101019.63
2022-10-08T16:14:37.773Z,101015.69
2022-10-08T16:17:05.357Z,101022.38
2022-10-08T16:19:32.898Z,101027.00
2022-10-08T16:22:01.387Z,101039.72
2022-10-08T16:24:29.022Z,101038.25
2022-10-08T16:26:56.505Z,101028.34
2022-10-08T16:29:24.090Z,101041.69
2022-10-08T16:31:51.630Z,101035.19
2022-10-08T16:34:22.703Z,101045.97
2022-10-08T16:36:51.407Z,101050.13
2022-10-08T16:39:21.376Z,101046.22
2022-10-08T16:41:51.850Z,101049.94
2022-10-08T16:44:20.985Z,101048.44
2022-10-08T16:46:51.472Z,101046.47
2022-10-08T16:49:24.578Z,101054.28
2022-10-08T16:52:01.555Z,101048.56
2022-10-08T16:54:29.423Z,101052.47
2022-10-08T16:56:57.826Z,101060.13
2022-10-08T16:59:27.347Z,101063.94
2022-10-08T17:01:56.936Z,101069.53
2022-10-08T17:04:26.155Z,101059.19
2022-10-08T17:06:56.599Z,101077.53
2022-10-08T17:09:24.233Z,101072.81
2022-10-08T17:11:52.283Z,101074.75
2022-10-08T17:14:19.810Z,101075.22
2022-10-08T17:16:49.598Z,101082.88
2022-10-08T17:19:17.531Z,101094.91
2022-10-08T17:21:45.573Z,101087.13
2022-10-08T17:24:13.388Z,101096.19
2022-10-08T17:26:42.015Z,101100.09
2022-10-08T17:29:11.207Z,101107.00
2022-10-08T17:31:39.623Z,101100.81
2022-10-08T17:34:07.769Z,101108.72
2022-10-08T17:36:37.938Z,101104.72
2022-10-08T17:39:08.561Z,101108.75
2022-10-08T17:41:38.109Z,101105.91
2022-10-08T17:44:15.576Z,101109.38
2022-10-08T17:46:46.250Z,101105.41
2022-10-08T17:49:17.475Z,101112.38
2022-10-08T17:52:03.637Z,101112.69
2022-10-08T17:54:31.214Z,101105.69
2022-10-08T17:57:00.014Z,101117.63
2022-10-08T17:59:28.647Z,101119.81
2022-10-08T18:01:56.566Z,101110.03
2022-10-08T18:04:24.146Z,101117.63
2022-10-08T18:06:51.644Z,101120.53
2022-10-08T18:09:20.954Z,101115.63
2022-10-08T18:11:52.120Z,101125.91
2022-10-08T18:14:22.527Z,101125.78
2022-10-08T18:16:51.551Z,101124.81
2022-10-08T18:19:19.349Z,101120.72
2022-10-08T18:21:47.173Z,101130.69
2022-10-08T18:24:18.539Z,101130.06
2022-10-08T18:26:46.848Z,101122.91
2022-10-08T18:29:16.314Z,101130.16
2022-10-08T18:31:44.777Z,101126.00
2022-10-08T18:34:15.407Z,101134.50
2022-10-08T18:36:43.545Z,101134.69
2022-10-08T18:39:13.557Z,101124.94
2022-10-08T18:44:27.223Z,101142.16
